This is the latest recevied weather packets stored in our database for station/object OK2KJT-11. If no packets are shown the sender has not sent any weather packets the latest 10 day(s).
| Time | Temp. | Humidity | Pressure | Rain* | Wind** | Luminosity | Snow |
|---|---|---|---|---|---|---|---|
| 1787762592 | 15° C | 81% | 1021.6 hPa | - | - | - | - |
| 1787761992 | 15.56° C | 79% | 1021.6 hPa | - | - | - | - |
| 1787761393 | 15.56° C | 79% | 1021.6 hPa | - | - | - | - |
| 1787760791 | 15.56° C | 78% | 1021.6 hPa | - | - | - | - |
| 1787760191 | 16.11° C | 77% | 1021.5 hPa | - | - | - | - |
| 1787759591 | 15.56° C | 76% | 1021.4 hPa | - | - | - | - |
| 1787758992 | 16.11° C | 75% | 1021.6 hPa | - | - | - | - |
| 1787758392 | 16.11° C | 74% | 1021.6 hPa | - | - | - | - |
| 1787757792 | 16.67° C | 71% | 1021.6 hPa | - | - | - | - |
| 1787757200 | 16.67° C | 69% | 1021.6 hPa | - | - | - | - |
| 1787756592 | 17.22° C | 67% | 1021.6 hPa | - | - | - | - |
| 1787755393 | 17.78° C | 66% | 1021.6 hPa | - | - | - | - |
| 1787754793 | 18.33° C | 66% | 1021.5 hPa | - | - | - | - |
| 1787754194 | 18.33° C | 64% | 1021.6 hPa | - | - | - | - |
| 1787753595 | 19.44° C | 61% | 1021.5 hPa | - | - | - | - |
| 1787752995 | 20.56° C | 60% | 1021.6 hPa | - | - | - | - |
| 1787752395 | 21.11° C | 57% | 1021.5 hPa | - | - | - | - |
| 1787751795 | 21.67° C | 54% | 1021.5 hPa | - | - | - | - |
| 1787751196 | 22.22° C | 53% | 1021.5 hPa | - | - | - | - |
| 1787750596 | 22.22° C | 55% | 1021.5 hPa | - | - | - | - |
| 1787749997 | 22.22° C | 54% | 1021.4 hPa | - | - | - | - |
| 1787749398 | 23.33° C | 55% | 1021.6 hPa | - | - | - | - |
| 1787748799 | 21.67° C | 58% | 1021.5 hPa | - | - | - | - |
| 1787748200 | 21.11° C | 59% | 1021.5 hPa | - | - | - | - |
| 1787747600 | 20.56° C | 61% | 1021.4 hPa | - | - | - | - |
* Rain since midnight (hover to see other rain measurements)
** Current wind speed in m/s (hover to see current wind gust speed)